Time;durP1;ratioP1;P1;durP2;ratioP2;P2;SDS_P1;SDS_P2;PMS_P1;PMS_P2;Temp;Humidity;BMP_temperature;BMP_pressure;BME280_temperature;BME280_humidity;BME280_pressure;Samples;Min_cycle;Max_cycle;Signal;HPM_P1;HPM_P2
2021/11/24 00:02:11;;;;;;;28.47;18.73;;;;;;;;;;5114702;28;20552;-77
2021/11/24 00:04:38;;;;;;;40.67;22.97;;;;;;;;;;5114436;28;20284;-77
2021/11/24 00:07:06;;;;;;;48.27;30.03;;;;;;;;;;5114334;28;20333;-77
2021/11/24 00:09:33;;;;;;;30.50;18.93;;;;;;;;;;5115052;27;20630;-77
2021/11/24 00:12:03;;;;;;;27.90;16.20;;;;;;;;;;5116434;27;20235;-77
2021/11/24 00:14:32;;;;;;;50.40;28.60;;;;;;;;;;5134948;27;20219;-77
2021/11/24 00:16:59;;;;;;;47.10;28.57;;;;;;;;;;5119451;27;20294;-77
2021/11/24 00:19:26;;;;;;;45.50;25.47;;;;;;;;;;5114410;28;20261;-77
2021/11/24 00:21:54;;;;;;;51.47;28.53;;;;;;;;;;5114080;27;20247;-78
2021/11/24 00:24:22;;;;;;;49.23;27.30;;;;;;;;;;5113881;28;20290;-77
2021/11/24 00:26:49;;;;;;;88.53;41.13;;;;;;;;;;5113236;27;20242;-77
2021/11/24 00:29:16;;;;;;;148.23;67.60;;;;;;;;;;5110034;27;20210;-77
2021/11/24 00:31:44;;;;;;;38.23;19.40;;;;;;;;;;5117441;27;20232;-75
2021/11/24 00:34:12;;;;;;;63.43;27.03;;;;;;;;;;5114002;28;20201;-78
2021/11/24 00:36:39;;;;;;;87.67;36.20;;;;;;;;;;5113151;28;20289;-78
2021/11/24 00:39:06;;;;;;;35.80;20.20;;;;;;;;;;5121963;27;20288;-77
2021/11/24 00:41:33;;;;;;;24.40;15.43;;;;;;;;;;5129851;27;20229;-77
2021/11/24 00:44:00;;;;;;;26.27;14.07;;;;;;;;;;5132061;27;20289;-77
2021/11/24 00:46:28;;;;;;;28.17;14.87;;;;;;;;;;5134503;27;20233;-77
2021/11/24 00:48:56;;;;;;;23.17;14.20;;;;;;;;;;5121614;27;20281;-77
2021/11/24 00:51:23;;;;;;;25.60;14.60;;;;;;;;;;5119032;27;20329;-77
2021/11/24 00:53:51;;;;;;;24.83;14.53;;;;;;;;;;5130015;27;20224;-77
2021/11/24 00:56:18;;;;;;;26.93;15.10;;;;;;;;;;5123747;27;20238;-77
2021/11/24 00:58:45;;;;;;;28.73;15.83;;;;;;;;;;5112529;28;20278;-77
2021/11/24 01:01:13;;;;;;;27.87;15.77;;;;;;;;;;5101798;28;20328;-77
2021/11/24 01:03:40;;;;;;;27.53;15.87;;;;;;;;;;5113104;28;20203;-77
2021/11/24 01:06:08;;;;;;;25.90;15.60;;;;;;;;;;5118029;27;20197;-77
2021/11/24 01:08:35;;;;;;;28.10;16.17;;;;;;;;;;5118943;27;20301;-77
2021/11/24 01:11:03;;;;;;;29.50;16.07;;;;;;;;;;5113220;28;20290;-77
2021/11/24 01:13:30;;;;;;;31.47;16.23;;;;;;;;;;5112633;28;20236;-77
2021/11/24 01:15:57;;;;;;;29.60;16.50;;;;;;;;;;5112430;28;20283;-77
2021/11/24 01:18:24;;;;;;;30.07;16.83;;;;;;;;;;5113023;27;20286;-77
2021/11/24 01:20:52;;;;;;;32.27;16.10;;;;;;;;;;5114838;27;20298;-77
2021/11/24 01:23:21;;;;;;;28.33;16.53;;;;;;;;;;5117006;27;20268;-77
2021/11/24 01:25:48;;;;;;;27.30;16.20;;;;;;;;;;5133852;27;20276;-77
2021/11/24 01:28:15;;;;;;;33.73;17.20;;;;;;;;;;5123348;27;20659;-77
2021/11/24 01:30:42;;;;;;;32.23;17.73;;;;;;;;;;5113096;28;20744;-77
2021/11/24 01:33:10;;;;;;;27.23;16.40;;;;;;;;;;5112553;28;20286;-77
2021/11/24 01:35:37;;;;;;;32.50;17.43;;;;;;;;;;5114257;27;20209;-77
2021/11/24 01:38:04;;;;;;;29.67;16.37;;;;;;;;;;5112692;28;20284;-78
2021/11/24 01:40:33;;;;;;;32.23;17.13;;;;;;;;;;5113166;28;20658;-77
2021/11/24 01:43:00;;;;;;;32.80;18.10;;;;;;;;;;5111740;27;20282;-77
2021/11/24 01:45:27;;;;;;;32.80;17.53;;;;;;;;;;5112188;28;20198;-77
2021/11/24 01:47:55;;;;;;;29.33;16.97;;;;;;;;;;5112010;28;20665;-77
2021/11/24 01:50:22;;;;;;;30.67;17.07;;;;;;;;;;5112163;28;20284;-78
2021/11/24 01:52:49;;;;;;;29.83;17.67;;;;;;;;;;5115283;27;20194;-77
2021/11/24 01:55:17;;;;;;;31.57;17.43;;;;;;;;;;5112113;28;20511;-77
2021/11/24 01:57:48;;;;;;;30.40;17.50;;;;;;;;;;5112102;28;20221;-77
2021/11/24 02:00:17;;;;;;;28.00;16.57;;;;;;;;;;5113302;28;20286;-77
2021/11/24 02:02:45;;;;;;;35.93;17.27;;;;;;;;;;5106714;28;20193;-77
2021/11/24 02:05:12;;;;;;;34.60;17.60;;;;;;;;;;5112349;28;20222;-77
2021/11/24 02:07:39;;;;;;;33.97;18.53;;;;;;;;;;5111984;28;20304;-77
2021/11/24 02:10:08;;;;;;;35.70;18.63;;;;;;;;;;5112350;28;20226;-77
2021/11/24 02:12:35;;;;;;;30.90;18.20;;;;;;;;;;5127092;27;20197;-77
2021/11/24 02:15:05;;;;;;;34.17;19.10;;;;;;;;;;5132725;27;20611;-76
2021/11/24 02:17:33;;;;;;;33.07;19.30;;;;;;;;;;5114366;28;20285;-77
2021/11/24 02:20:01;;;;;;;37.07;18.67;;;;;;;;;;5112080;28;20331;-77
2021/11/24 02:22:29;;;;;;;34.60;18.67;;;;;;;;;;5126558;27;20200;-76
2021/11/24 02:24:56;;;;;;;33.63;17.60;;;;;;;;;;5132660;27;20232;-76
2021/11/24 02:27:25;;;;;;;34.73;19.30;;;;;;;;;;5117305;27;20217;-77
2021/11/24 02:29:52;;;;;;;36.00;18.90;;;;;;;;;;5124297;28;20205;-76
2021/11/24 02:32:20;;;;;;;33.80;18.93;;;;;;;;;;5121998;28;20288;-77
2021/11/24 02:34:47;;;;;;;31.70;17.60;;;;;;;;;;5111979;28;20240;-77
2021/11/24 02:37:15;;;;;;;38.37;19.50;;;;;;;;;;5112233;28;20288;-77
2021/11/24 02:39:44;;;;;;;32.13;18.67;;;;;;;;;;5115950;28;20243;-76
2021/11/24 02:42:12;;;;;;;36.33;19.73;;;;;;;;;;5112350;28;20595;-76
2021/11/24 02:44:40;;;;;;;35.77;19.37;;;;;;;;;;5113011;28;20209;-77
2021/11/24 02:47:08;;;;;;;37.47;19.80;;;;;;;;;;5117981;28;20306;-76
2021/11/24 02:49:35;;;;;;;34.33;19.43;;;;;;;;;;5112137;28;20623;-77
2021/11/24 02:52:03;;;;;;;37.03;19.20;;;;;;;;;;5111000;28;20891;-77
2021/11/24 02:54:30;;;;;;;36.23;19.57;;;;;;;;;;5122699;28;20204;-77
2021/11/24 02:57:00;;;;;;;38.73;19.60;;;;;;;;;;5118447;28;20295;-77
2021/11/24 02:59:28;;;;;;;36.43;20.40;;;;;;;;;;5135613;27;20229;-77
2021/11/24 03:01:55;;;;;;;31.90;18.73;;;;;;;;;;5133751;27;20283;-77
2021/11/24 03:04:27;;;;;;;38.87;20.57;;;;;;;;;;5114961;28;20860;-77
2021/11/24 03:06:55;;;;;;;38.80;19.20;;;;;;;;;;5116042;28;20367;-76
2021/11/24 03:09:23;;;;;;;39.60;21.03;;;;;;;;;;5115201;28;20309;-77
2021/11/24 03:11:50;;;;;;;34.80;20.33;;;;;;;;;;5125568;27;20253;-77
2021/11/24 03:14:18;;;;;;;34.10;19.83;;;;;;;;;;5136287;27;20305;-76
2021/11/24 03:16:45;;;;;;;36.50;19.97;;;;;;;;;;5135821;27;20294;-76
2021/11/24 03:19:12;;;;;;;35.47;19.57;;;;;;;;;;5136255;27;20779;-76
2021/11/24 03:21:40;;;;;;;36.67;19.47;;;;;;;;;;5117727;27;20217;-77
2021/11/24 03:24:07;;;;;;;37.20;20.13;;;;;;;;;;5115784;27;20280;-76
2021/11/24 03:26:34;;;;;;;34.63;20.00;;;;;;;;;;5121809;27;20196;-77
2021/11/24 03:29:01;;;;;;;38.90;20.47;;;;;;;;;;5119970;27;20304;-77
2021/11/24 03:31:30;;;;;;;39.17;20.63;;;;;;;;;;5114206;28;20669;-76
2021/11/24 03:33:57;;;;;;;36.53;20.33;;;;;;;;;;5115593;28;20200;-76
2021/11/24 03:36:24;;;;;;;39.17;21.07;;;;;;;;;;5114901;28;20293;-77
2021/11/24 03:38:51;;;;;;;40.60;20.53;;;;;;;;;;5117917;27;20221;-77
2021/11/24 03:41:19;;;;;;;36.90;19.60;;;;;;;;;;5121099;27;20232;-76
2021/11/24 03:43:46;;;;;;;37.90;20.03;;;;;;;;;;5135838;27;20289;-76
2021/11/24 03:46:13;;;;;;;35.03;20.13;;;;;;;;;;5118737;27;20289;-76
2021/11/24 03:48:42;;;;;;;40.03;21.63;;;;;;;;;;5114118;28;20312;-77
2021/11/24 03:51:09;;;;;;;37.97;20.83;;;;;;;;;;5114919;27;20494;-77
2021/11/24 03:53:40;;;;;;;39.63;21.43;;;;;;;;;;5118628;27;20281;-77
2021/11/24 03:56:07;;;;;;;39.77;20.93;;;;;;;;;;5118683;27;20250;-77
2021/11/24 03:58:35;;;;;;;41.07;20.07;;;;;;;;;;5119259;27;20277;-77
2021/11/24 04:01:02;;;;;;;35.60;19.53;;;;;;;;;;5133135;27;20208;-77
2021/11/24 04:03:29;;;;;;;37.70;19.70;;;;;;;;;;5135361;27;20754;-77
2021/11/24 04:05:58;;;;;;;39.37;20.57;;;;;;;;;;5124237;27;20206;-77
2021/11/24 04:08:26;;;;;;;39.33;20.07;;;;;;;;;;5114863;27;20312;-77
2021/11/24 04:10:53;;;;;;;40.33;20.83;;;;;;;;;;5113811;28;20329;-77
2021/11/24 04:13:20;;;;;;;36.50;19.97;;;;;;;;;;5114613;28;20202;-77
2021/11/24 04:15:47;;;;;;;38.93;20.83;;;;;;;;;;5121186;27;20258;-76
2021/11/24 04:18:14;;;;;;;40.70;21.23;;;;;;;;;;5125519;27;20228;-77
2021/11/24 04:20:42;;;;;;;42.70;20.67;;;;;;;;;;5124484;27;20252;-77
2021/11/24 04:23:10;;;;;;;40.67;20.70;;;;;;;;;;5114364;28;20305;-77
2021/11/24 04:25:38;;;;;;;38.63;20.83;;;;;;;;;;5114449;28;20284;-77
2021/11/24 04:28:05;;;;;;;38.23;20.60;;;;;;;;;;5114096;27;20729;-77
2021/11/24 04:30:32;;;;;;;38.37;20.40;;;;;;;;;;5114675;28;20234;-77
2021/11/24 04:33:00;;;;;;;38.40;20.57;;;;;;;;;;5120054;27;20240;-77
2021/11/24 04:35:27;;;;;;;35.00;20.17;;;;;;;;;;5113543;28;20245;-77
2021/11/24 04:37:54;;;;;;;37.47;20.40;;;;;;;;;;5114291;28;20229;-77
2021/11/24 04:40:23;;;;;;;38.47;19.23;;;;;;;;;;5114121;28;20253;-76
2021/11/24 04:42:52;;;;;;;36.43;20.57;;;;;;;;;;5113732;28;20198;-76
2021/11/24 04:45:19;;;;;;;35.10;19.63;;;;;;;;;;5114299;28;20546;-76
2021/11/24 04:47:47;;;;;;;36.57;19.27;;;;;;;;;;5113895;27;20247;-76
2021/11/24 04:50:16;;;;;;;36.57;19.33;;;;;;;;;;5114107;28;20254;-76
2021/11/24 04:52:43;;;;;;;36.27;20.37;;;;;;;;;;5113672;28;20206;-76
2021/11/24 04:55:11;;;;;;;36.83;19.17;;;;;;;;;;5113131;28;20250;-75
2021/11/24 04:57:39;;;;;;;39.07;20.80;;;;;;;;;;5113552;28;20830;-77
2021/11/24 05:00:10;;;;;;;38.90;20.20;;;;;;;;;;5118325;27;20201;-75
2021/11/24 05:02:37;;;;;;;37.47;19.73;;;;;;;;;;5112885;28;20194;-77
2021/11/24 05:05:05;;;;;;;34.87;19.73;;;;;;;;;;5113509;28;20197;-77
2021/11/24 05:07:32;;;;;;;37.17;19.57;;;;;;;;;;5113353;27;20643;-77
2021/11/24 05:09:59;;;;;;;35.30;19.10;;;;;;;;;;5112397;27;20304;-77
2021/11/24 05:12:26;;;;;;;36.20;19.23;;;;;;;;;;5126729;27;20218;-76
2021/11/24 05:14:55;;;;;;;38.60;19.40;;;;;;;;;;5126513;27;20299;-77
2021/11/24 05:17:25;;;;;;;32.97;18.73;;;;;;;;;;5113314;27;20582;-78
2021/11/24 05:19:53;;;;;;;34.57;19.73;;;;;;;;;;5112736;27;20249;-77
2021/11/24 05:22:20;;;;;;;34.80;18.33;;;;;;;;;;5112036;28;20206;-77
2021/11/24 05:24:47;;;;;;;35.57;18.77;;;;;;;;;;5113602;28;20202;-76
2021/11/24 05:27:15;;;;;;;34.90;18.97;;;;;;;;;;5116253;27;20220;-77
2021/11/24 05:29:42;;;;;;;37.93;18.37;;;;;;;;;;5113214;28;20224;-77
2021/11/24 05:32:11;;;;;;;39.40;20.17;;;;;;;;;;5132214;27;20239;-77
2021/11/24 05:34:38;;;;;;;37.93;19.37;;;;;;;;;;5112575;28;20281;-77
2021/11/24 05:37:07;;;;;;;38.73;19.23;;;;;;;;;;5112354;28;20574;-77
2021/11/24 05:39:35;;;;;;;35.93;18.83;;;;;;;;;;5092583;28;20237;-77
2021/11/24 05:42:02;;;;;;;36.03;19.53;;;;;;;;;;5111767;28;20279;-77
2021/11/24 05:44:33;;;;;;;31.47;17.43;;;;;;;;;;5123603;27;20193;-77
2021/11/24 05:47:05;;;;;;;32.33;17.63;;;;;;;;;;5124900;27;20236;-77
2021/11/24 05:49:34;;;;;;;32.57;18.00;;;;;;;;;;5112351;28;20221;-77
2021/11/24 05:52:01;;;;;;;31.17;16.83;;;;;;;;;;5113690;27;20285;-76
2021/11/24 05:54:28;;;;;;;30.83;17.40;;;;;;;;;;5112542;28;20284;-77
2021/11/24 05:56:55;;;;;;;29.80;17.43;;;;;;;;;;5111961;28;20229;-77
2021/11/24 05:59:22;;;;;;;34.43;19.23;;;;;;;;;;5117020;27;20230;-77
2021/11/24 06:01:49;;;;;;;36.03;17.80;;;;;;;;;;5113569;27;20288;-76
2021/11/24 06:04:17;;;;;;;34.43;18.03;;;;;;;;;;5112863;27;20232;-76
2021/11/24 06:06:46;;;;;;;36.70;18.90;;;;;;;;;;5112468;28;20709;-76
2021/11/24 06:09:13;;;;;;;35.63;18.63;;;;;;;;;;5111425;28;20282;-76
2021/11/24 06:11:40;;;;;;;35.07;18.70;;;;;;;;;;5112023;28;20288;-76
2021/11/24 06:14:07;;;;;;;36.30;19.27;;;;;;;;;;5116373;27;20296;-76
2021/11/24 06:16:34;;;;;;;37.10;18.73;;;;;;;;;;5111253;28;20286;-76
2021/11/24 06:19:01;;;;;;;37.50;18.53;;;;;;;;;;5112062;28;20311;-76
2021/11/24 06:21:29;;;;;;;36.07;18.00;;;;;;;;;;5112372;28;20292;-76
2021/11/24 06:23:57;;;;;;;38.37;18.67;;;;;;;;;;5127489;27;20758;-76
2021/11/24 06:26:24;;;;;;;41.17;20.17;;;;;;;;;;5125699;28;20292;-76
2021/11/24 06:28:52;;;;;;;37.33;18.83;;;;;;;;;;5128102;27;20288;-76
2021/11/24 06:31:20;;;;;;;37.13;18.97;;;;;;;;;;5115142;28;20284;-76
2021/11/24 06:33:47;;;;;;;38.40;19.13;;;;;;;;;;5116950;28;20684;-76
2021/11/24 06:36:14;;;;;;;39.53;19.30;;;;;;;;;;5118698;27;20258;-76
2021/11/24 06:38:41;;;;;;;39.23;19.20;;;;;;;;;;5117463;28;20228;-77
2021/11/24 06:41:10;;;;;;;40.43;18.97;;;;;;;;;;5119325;27;20276;-76
2021/11/24 06:43:37;;;;;;;38.40;19.07;;;;;;;;;;5117543;28;20291;-77
2021/11/24 06:46:04;;;;;;;34.13;17.87;;;;;;;;;;5136684;27;20207;-77
2021/11/24 06:48:31;;;;;;;31.87;16.90;;;;;;;;;;5135454;27;20283;-76
2021/11/24 06:50:59;;;;;;;33.63;17.03;;;;;;;;;;5114398;27;20293;-76
2021/11/24 06:53:26;;;;;;;37.10;17.80;;;;;;;;;;5115073;27;20276;-76
2021/11/24 06:55:53;;;;;;;37.83;19.03;;;;;;;;;;5118063;28;20228;-76
2021/11/24 06:58:22;;;;;;;41.77;19.80;;;;;;;;;;5117004;27;20299;-77
2021/11/24 07:00:50;;;;;;;43.53;20.13;;;;;;;;;;5117460;28;20197;-76
2021/11/24 07:03:17;;;;;;;44.47;20.23;;;;;;;;;;5117896;28;20231;-76
2021/11/24 07:05:44;;;;;;;43.73;20.93;;;;;;;;;;5118828;28;20247;-76
2021/11/24 07:08:11;;;;;;;43.90;20.33;;;;;;;;;;5118032;27;20295;-76
2021/11/24 07:10:38;;;;;;;46.73;20.63;;;;;;;;;;5106371;28;20219;-76
2021/11/24 07:13:06;;;;;;;48.63;21.80;;;;;;;;;;5118953;27;20232;-76
2021/11/24 07:15:34;;;;;;;46.77;20.77;;;;;;;;;;5125801;27;20303;-76
2021/11/24 07:18:01;;;;;;;51.07;21.17;;;;;;;;;;5121639;27;20743;-76
2021/11/24 07:20:29;;;;;;;47.67;21.67;;;;;;;;;;5117513;28;20232;-76
2021/11/24 07:22:56;;;;;;;45.20;20.30;;;;;;;;;;5118344;28;20292;-76
2021/11/24 07:25:24;;;;;;;44.80;20.97;;;;;;;;;;5118318;27;20223;-76
2021/11/24 07:27:51;;;;;;;49.07;22.43;;;;;;;;;;5117660;28;20698;-76
2021/11/24 07:30:19;;;;;;;44.13;21.17;;;;;;;;;;5118322;28;20227;-77
2021/11/24 07:32:48;;;;;;;42.63;21.40;;;;;;;;;;5118172;28;20202;-77
2021/11/24 07:35:15;;;;;;;49.50;21.17;;;;;;;;;;5117723;27;20203;-76
2021/11/24 07:37:42;;;;;;;45.50;22.13;;;;;;;;;;5117227;28;20763;-77
2021/11/24 07:40:10;;;;;;;44.20;22.33;;;;;;;;;;5118152;28;20732;-77
2021/11/24 07:42:38;;;;;;;45.57;21.43;;;;;;;;;;5117795;27;20289;-76
2021/11/24 07:45:05;;;;;;;48.47;20.73;;;;;;;;;;5115615;27;20304;-77
2021/11/24 07:47:33;;;;;;;55.37;22.37;;;;;;;;;;5117871;27;20280;-78
2021/11/24 07:50:02;;;;;;;52.27;22.87;;;;;;;;;;5117256;27;20950;-77
2021/11/24 07:52:29;;;;;;;52.80;23.40;;;;;;;;;;5114823;27;20899;-77
2021/11/24 07:54:56;;;;;;;51.13;23.03;;;;;;;;;;5120946;27;20240;-77
2021/11/24 07:57:23;;;;;;;49.23;24.00;;;;;;;;;;5120717;27;20229;-77
2021/11/24 07:59:51;;;;;;;45.20;23.23;;;;;;;;;;5125228;27;20271;-77
2021/11/24 08:02:18;;;;;;;47.03;24.40;;;;;;;;;;5113959;28;20271;-77
2021/11/24 08:04:45;;;;;;;43.80;23.87;;;;;;;;;;5116047;28;20233;-77
2021/11/24 08:07:13;;;;;;;38.23;22.03;;;;;;;;;;5114151;27;20209;-78
2021/11/24 08:09:41;;;;;;;35.77;20.77;;;;;;;;;;5114164;28;20226;-77
2021/11/24 08:12:08;;;;;;;32.50;19.57;;;;;;;;;;5113669;27;20290;-78
2021/11/24 08:14:36;;;;;;;32.33;18.90;;;;;;;;;;5114050;27;20251;-79
2021/11/24 08:17:04;;;;;;;28.73;18.57;;;;;;;;;;5114183;27;20281;-77
2021/11/24 08:19:31;;;;;;;30.40;18.97;;;;;;;;;;5114007;28;20362;-77
2021/11/24 08:21:58;;;;;;;27.13;18.00;;;;;;;;;;5113985;28;20282;-77
2021/11/24 08:24:28;;;;;;;27.07;18.23;;;;;;;;;;5114074;27;20232;-77
2021/11/24 08:26:55;;;;;;;27.40;19.17;;;;;;;;;;5114336;27;20279;-77
2021/11/24 08:29:22;;;;;;;28.77;18.20;;;;;;;;;;5114847;27;20307;-78
2021/11/24 08:31:49;;;;;;;26.17;18.17;;;;;;;;;;5113761;27;20232;-78
2021/11/24 08:34:17;;;;;;;26.93;18.40;;;;;;;;;;5112771;28;20287;-77
2021/11/24 08:36:44;;;;;;;24.73;18.33;;;;;;;;;;5112830;28;20198;-77
2021/11/24 08:39:12;;;;;;;24.77;17.20;;;;;;;;;;5117211;27;20198;-78
2021/11/24 08:41:41;;;;;;;24.57;16.80;;;;;;;;;;5114511;27;20196;-78
2021/11/24 08:44:08;;;;;;;22.40;16.53;;;;;;;;;;5112879;28;20230;-78
2021/11/24 08:46:35;;;;;;;22.90;17.33;;;;;;;;;;5121587;27;20278;-78
2021/11/24 08:49:02;;;;;;;22.40;16.93;;;;;;;;;;5112044;28;20280;-78
2021/11/24 08:51:29;;;;;;;22.07;16.50;;;;;;;;;;5112936;28;20292;-77
2021/11/24 08:53:57;;;;;;;24.13;16.57;;;;;;;;;;5112640;28;20240;-78
2021/11/24 08:56:24;;;;;;;20.80;15.93;;;;;;;;;;5113197;28;20390;-77
2021/11/24 08:58:53;;;;;;;20.90;16.13;;;;;;;;;;5116440;27;20258;-77
2021/11/24 09:01:20;;;;;;;19.77;15.50;;;;;;;;;;5112724;28;20281;-77
2021/11/24 09:03:47;;;;;;;20.80;14.90;;;;;;;;;;5112096;28;20720;-78
2021/11/24 09:06:14;;;;;;;18.63;14.97;;;;;;;;;;5111919;27;20745;-78
2021/11/24 09:08:41;;;;;;;20.00;15.30;;;;;;;;;;5114624;27;20291;-77
2021/11/24 09:11:09;;;;;;;19.33;14.87;;;;;;;;;;5112483;28;20217;-78
2021/11/24 09:13:36;;;;;;;18.20;14.13;;;;;;;;;;5120789;27;20217;-77
2021/11/24 09:16:05;;;;;;;19.33;14.97;;;;;;;;;;5112839;28;20236;-77
2021/11/24 09:18:32;;;;;;;18.60;14.77;;;;;;;;;;5112019;28;20233;-78
2021/11/24 09:20:59;;;;;;;18.30;14.37;;;;;;;;;;5112275;28;20292;-79
2021/11/24 09:23:28;;;;;;;17.13;13.27;;;;;;;;;;5118758;27;20284;-78
2021/11/24 09:26:02;;;;;;;21.23;15.13;;;;;;;;;;5110262;27;20200;-77
2021/11/24 09:28:32;;;;;;;17.53;14.03;;;;;;;;;;5111848;28;20753;-78
2021/11/24 09:30:59;;;;;;;18.33;14.00;;;;;;;;;;5112529;28;20253;-77
2021/11/24 09:33:28;;;;;;;18.47;13.23;;;;;;;;;;5111558;28;20204;-78
2021/11/24 09:35:55;;;;;;;20.40;14.00;;;;;;;;;;5104474;28;20235;-78
2021/11/24 09:38:23;;;;;;;19.37;13.70;;;;;;;;;;5111647;27;20288;-77
2021/11/24 09:40:50;;;;;;;18.50;13.50;;;;;;;;;;5111200;28;20202;-78
2021/11/24 09:43:18;;;;;;;20.63;14.07;;;;;;;;;;5111984;28;20276;-78
2021/11/24 09:45:47;;;;;;;17.83;13.73;;;;;;;;;;5110845;28;20197;-78
2021/11/24 09:48:17;;;;;;;16.73;12.80;;;;;;;;;;5111196;28;20285;-78
2021/11/24 09:50:47;;;;;;;17.60;13.10;;;;;;;;;;5108401;28;20209;-78
2021/11/24 09:53:15;;;;;;;18.50;13.30;;;;;;;;;;5104362;28;20316;-78
2021/11/24 09:55:42;;;;;;;18.10;13.00;;;;;;;;;;5111794;28;20297;-78
2021/11/24 09:58:10;;;;;;;17.53;12.67;;;;;;;;;;5120918;27;20280;-79
2021/11/24 10:00:39;;;;;;;15.47;12.00;;;;;;;;;;5110518;28;20677;-78
2021/11/24 10:03:07;;;;;;;15.20;11.87;;;;;;;;;;5109633;28;20292;-78
2021/11/24 10:05:35;;;;;;;15.80;12.10;;;;;;;;;;5111262;28;20198;-78
2021/11/24 10:08:04;;;;;;;15.60;11.10;;;;;;;;;;5110071;28;20254;-78
2021/11/24 10:10:31;;;;;;;15.00;10.67;;;;;;;;;;5105913;27;20343;-77
2021/11/24 10:13:00;;;;;;;15.07;10.60;;;;;;;;;;5115990;27;20284;-76
2021/11/24 10:15:39;;;;;;;13.10;9.97;;;;;;;;;;5109676;28;20210;-78
2021/11/24 10:18:18;;;;;;;12.87;9.63;;;;;;;;;;5113953;28;20197;-77
2021/11/24 10:20:49;;;;;;;15.07;10.13;;;;;;;;;;5110943;28;20303;-77
2021/11/24 10:23:22;;;;;;;14.97;9.80;;;;;;;;;;5110812;28;20229;-78
2021/11/24 10:25:49;;;;;;;10.97;9.00;;;;;;;;;;5115019;27;20194;-78
2021/11/24 10:28:26;;;;;;;12.57;9.13;;;;;;;;;;5111384;28;20757;-77
2021/11/24 10:30:55;;;;;;;11.37;8.80;;;;;;;;;;5110441;28;20270;-77
2021/11/24 10:33:25;;;;;;;11.90;8.83;;;;;;;;;;5110436;28;20929;-78
2021/11/24 10:36:09;;;;;;;13.77;9.60;;;;;;;;;;5117059;28;20241;-78
2021/11/24 10:38:41;;;;;;;12.10;8.87;;;;;;;;;;5110659;28;20739;-77
2021/11/24 10:41:10;;;;;;;12.93;8.60;;;;;;;;;;5104620;28;20608;-77
2021/11/24 10:43:43;;;;;;;13.10;9.10;;;;;;;;;;5111510;28;20193;-78
2021/11/24 10:46:11;;;;;;;10.33;8.70;;;;;;;;;;5106547;28;20289;-78
2021/11/24 10:48:39;;;;;;;11.03;8.57;;;;;;;;;;5116210;28;20628;-78
2021/11/24 10:51:21;;;;;;;11.23;8.67;;;;;;;;;;5110278;28;20247;-78
2021/11/24 10:54:04;;;;;;;10.23;7.73;;;;;;;;;;5108635;28;20677;-78
2021/11/24 10:56:31;;;;;;;12.23;7.87;;;;;;;;;;5109436;28;20284;-78
2021/11/24 10:59:14;;;;;;;10.93;7.80;;;;;;;;;;5110343;28;20285;-78
2021/11/24 11:01:41;;;;;;;8.87;7.30;;;;;;;;;;5108272;28;20193;-77
2021/11/24 11:04:09;;;;;;;10.17;8.13;;;;;;;;;;5110483;28;20217;-78
2021/11/24 11:06:37;;;;;;;10.87;7.80;;;;;;;;;;5110046;28;20699;-77
2021/11/24 11:09:06;;;;;;;10.23;7.60;;;;;;;;;;5109713;28;20531;-78
2021/11/24 11:11:34;;;;;;;9.63;7.00;;;;;;;;;;5110700;28;20308;-77
2021/11/24 11:14:15;;;;;;;9.63;7.40;;;;;;;;;;5112104;28;20316;-78
2021/11/24 11:16:43;;;;;;;9.70;6.50;;;;;;;;;;5104121;28;20236;-78
2021/11/24 11:19:10;;;;;;;9.83;7.27;;;;;;;;;;5111988;28;20230;-77
2021/11/24 11:21:38;;;;;;;9.57;7.13;;;;;;;;;;5113449;27;20234;-78
2021/11/24 11:24:08;;;;;;;10.57;7.63;;;;;;;;;;5114554;28;20276;-78
2021/11/24 11:26:36;;;;;;;9.50;7.30;;;;;;;;;;5112946;28;20748;-77
2021/11/24 11:29:03;;;;;;;10.83;7.60;;;;;;;;;;5117544;27;20269;-77
2021/11/24 11:31:31;;;;;;;9.67;7.87;;;;;;;;;;5110743;27;20304;-78
2021/11/24 11:34:00;;;;;;;10.90;7.87;;;;;;;;;;5115270;27;20229;-77
2021/11/24 11:36:28;;;;;;;9.50;7.80;;;;;;;;;;5114338;28;20267;-77
2021/11/24 11:38:56;;;;;;;10.97;7.83;;;;;;;;;;5113404;28;20229;-77
2021/11/24 11:41:26;;;;;;;10.03;7.60;;;;;;;;;;5114661;27;20281;-78
2021/11/24 11:43:53;;;;;;;10.60;8.07;;;;;;;;;;5112914;28;20194;-78
2021/11/24 11:46:22;;;;;;;11.57;8.30;;;;;;;;;;5114833;28;20221;-77
2021/11/24 11:48:51;;;;;;;10.67;7.73;;;;;;;;;;5113745;28;20620;-78
2021/11/24 11:51:27;;;;;;;9.73;7.23;;;;;;;;;;5113541;27;20228;-77
2021/11/24 11:53:55;;;;;;;11.40;7.80;;;;;;;;;;5114490;28;20204;-78
2021/11/24 11:56:23;;;;;;;10.07;7.37;;;;;;;;;;5114568;28;20263;-77
2021/11/24 11:58:55;;;;;;;10.10;7.63;;;;;;;;;;5116526;27;20292;-77
2021/11/24 12:01:24;;;;;;;10.43;7.23;;;;;;;;;;5113830;28;20232;-78
2021/11/24 12:04:09;;;;;;;9.03;7.30;;;;;;;;;;5113840;28;20267;-77
2021/11/24 12:06:39;;;;;;;11.27;7.80;;;;;;;;;;5111342;27;20190;-76
2021/11/24 12:09:15;;;;;;;10.23;7.60;;;;;;;;;;5116420;27;20208;-78
2021/11/24 12:12:01;;;;;;;10.60;7.70;;;;;;;;;;5113266;27;20213;-77
2021/11/24 12:14:46;;;;;;;9.70;7.23;;;;;;;;;;5111543;27;20214;-77
2021/11/24 12:17:32;;;;;;;10.13;8.17;;;;;;;;;;5110183;28;20703;-78
2021/11/24 12:20:01;;;;;;;10.00;7.37;;;;;;;;;;5107989;28;20221;-78
2021/11/24 12:22:48;;;;;;;8.83;7.10;;;;;;;;;;5113148;27;20199;-77
2021/11/24 12:25:31;;;;;;;7.77;6.27;;;;;;;;;;5113354;27;20668;-77
2021/11/24 12:28:06;;;;;;;8.47;6.50;;;;;;;;;;5109777;27;20197;-77
2021/11/24 12:30:53;;;;;;;7.47;6.07;;;;;;;;;;5115892;27;20597;-77
2021/11/24 12:33:22;;;;;;;9.87;6.77;;;;;;;;;;5113248;27;20206;-77
2021/11/24 12:35:52;;;;;;;9.03;6.87;;;;;;;;;;5112705;28;20198;-78
2021/11/24 12:38:20;;;;;;;9.40;6.73;;;;;;;;;;5113398;28;20194;-77
2021/11/24 12:40:49;;;;;;;8.47;6.87;;;12.40;99.90;;;;;;5112379;28;20198;-78
2021/11/24 12:43:18;;;;;;;8.90;6.83;;;12.50;99.90;;;;;;5113139;28;20286;-78
2021/11/24 12:46:01;;;;;;;8.20;6.30;;;11.90;99.90;;;;;;5112386;28;20737;-77
2021/11/24 12:48:31;;;;;;;8.77;6.57;;;11.90;99.90;;;;;;5112964;27;20205;-77
2021/11/24 12:51:00;;;;;;;8.50;6.27;;;12.20;99.90;;;;;;5112008;28;20308;-77
2021/11/24 12:53:27;;;;;;;8.00;6.40;;;12.50;99.90;;;;;;5112805;27;20194;-77
2021/11/24 12:56:08;;;;;;;9.13;6.40;;;12.50;99.90;;;;;;5112021;28;20301;-77
2021/11/24 12:58:36;;;;;;;8.30;6.17;;;12.80;99.90;;;;;;5112370;28;20196;-77
2021/11/24 13:01:14;;;;;;;8.53;6.10;;;12.50;99.90;;;;;;5112674;27;20658;-77
2021/11/24 13:03:40;;;;;;;8.73;7.07;;;12.00;99.90;;;;;;5107263;28;20189;-77
2021/11/24 13:06:09;;;;;;;9.23;6.53;;;12.00;99.90;;;;;;5111961;28;20288;-77
2021/11/24 13:08:36;;;;;;;8.83;6.77;;;11.90;99.90;;;;;;5114877;27;20234;-77
2021/11/24 13:11:04;;;;;;;10.37;6.40;;;12.20;99.90;;;;;;5110491;27;20305;-76
2021/11/24 13:13:31;;;;;;;8.50;6.60;;;12.10;99.90;;;;;;5108444;28;20221;-76
2021/11/24 13:15:58;;;;;;;8.50;6.77;;;12.00;99.90;;;;;;5107480;27;20289;-76
2021/11/24 13:18:26;;;;;;;8.87;6.43;;;12.10;99.90;;;;;;5113743;27;20194;-77
2021/11/24 13:20:54;;;;;;;8.43;5.97;;;12.50;99.90;;;;;;5111275;28;20676;-77
2021/11/24 13:23:22;;;;;;;7.50;6.10;;;12.40;99.90;;;;;;5113683;27;20289;-77
2021/11/24 13:25:49;;;;;;;8.33;6.07;;;12.20;99.90;;;;;;5111394;28;20240;-76
2021/11/24 13:28:17;;;;;;;8.03;6.20;;;12.20;99.90;;;;;;5112087;28;20232;-76
2021/11/24 13:30:46;;;;;;;8.37;6.30;;;11.70;99.90;;;;;;5114801;27;20304;-78
2021/11/24 13:33:15;;;;;;;7.50;5.97;;;11.80;99.90;;;;;;5112591;27;20290;-76
2021/11/24 13:35:44;;;;;;;7.87;5.80;;;11.80;99.90;;;;;;5111512;28;20205;-76
2021/11/24 13:38:19;;;;;;;8.27;6.17;;;11.90;99.90;;;;;;5112026;28;20821;-76
2021/11/24 13:40:51;;;;;;;8.50;6.23;;;11.60;99.90;;;;;;5114929;27;20185;-76
2021/11/24 13:43:31;;;;;;;8.47;6.20;;;11.60;99.90;;;;;;5111190;28;20277;-76
2021/11/24 13:45:59;;;;;;;7.33;5.60;;;11.50;99.90;;;;;;5111310;28;20289;-76
2021/11/24 13:48:26;;;;;;;7.60;5.70;;;11.70;99.90;;;;;;5111741;28;20217;-76
2021/11/24 13:50:58;;;;;;;9.90;6.70;;;11.40;99.90;;;;;;5111727;28;20245;-77
2021/11/24 13:53:28;;;;;;;9.83;6.53;;;11.20;99.90;;;;;;5092866;28;20225;-77
2021/11/24 13:56:26;;;;;;;8.70;6.37;;;11.50;99.90;;;;;;5110804;27;20704;-77
2021/11/24 13:59:05;;;;;;;8.73;6.20;;;10.90;99.90;;;;;;5118566;27;20276;-76
2021/11/24 14:01:35;;;;;;;8.83;6.57;;;11.10;99.90;;;;;;5111313;28;20736;-77
2021/11/24 14:04:04;;;;;;;8.10;6.67;;;10.90;99.90;;;;;;5111185;28;20234;-76
2021/11/24 14:06:43;;;;;;;9.73;6.57;;;11.20;99.90;;;;;;5112209;28;20225;-76
2021/11/24 14:09:32;;;;;;;9.20;6.60;;;11.10;99.90;;;;;;5101492;27;20612;-76
2021/11/24 14:12:10;;;;;;;9.23;6.80;;;11.40;99.90;;;;;;5111164;28;20300;-76
2021/11/24 14:14:46;;;;;;;9.47;6.47;;;11.60;99.90;;;;;;5109337;28;20233;-76
2021/11/24 14:17:24;;;;;;;9.60;6.63;;;11.00;99.90;;;;;;5109750;28;20308;-76
2021/11/24 14:19:51;;;;;;;9.00;6.97;;;10.90;99.90;;;;;;5105199;28;20743;-77